createdAt,value
2018-03-18T00:00:02.914Z,23.35
2018-03-18T00:02:31.781Z,23.34
2018-03-18T00:05:00.670Z,23.34
2018-03-18T00:07:29.914Z,23.32
2018-03-18T00:09:58.973Z,23.33
2018-03-18T00:12:28.193Z,23.34
2018-03-18T00:14:57.525Z,23.30
2018-03-18T00:17:26.589Z,23.32
2018-03-18T00:19:55.650Z,23.32
2018-03-18T00:22:26.335Z,23.32
2018-03-18T00:24:55.413Z,23.32
2018-03-18T00:27:24.492Z,23.32
2018-03-18T00:29:53.930Z,23.34
2018-03-18T00:32:22.981Z,23.36
2018-03-18T00:34:52.040Z,23.36
2018-03-18T00:37:21.121Z,23.37
2018-03-18T00:39:50.182Z,23.38
2018-03-18T00:42:19.238Z,23.39
2018-03-18T00:44:48.681Z,23.40
2018-03-18T00:47:17.759Z,23.41
2018-03-18T00:49:46.816Z,23.42
2018-03-18T00:52:16.180Z,23.43
2018-03-18T00:54:45.254Z,23.44
2018-03-18T00:57:14.375Z,23.44
2018-03-18T00:59:43.649Z,23.46
2018-03-18T01:02:12.707Z,23.47
2018-03-18T01:04:41.590Z,23.48
2018-03-18T01:07:11.058Z,23.48
2018-03-18T01:09:40.106Z,23.49
2018-03-18T01:12:09.171Z,23.50
2018-03-18T01:14:38.529Z,23.49
2018-03-18T01:17:07.588Z,23.50
2018-03-18T01:19:36.649Z,23.51
2018-03-18T01:22:06.068Z,23.51
2018-03-18T01:24:35.305Z,23.52
2018-03-18T01:27:04.355Z,23.51
2018-03-18T01:29:33.835Z,23.52
2018-03-18T01:32:02.696Z,23.51
2018-03-18T01:34:31.745Z,23.51
2018-03-18T01:37:01.214Z,23.51
2018-03-18T01:39:30.285Z,23.48
2018-03-18T01:41:59.342Z,23.48
2018-03-18T01:44:28.426Z,23.47
2018-03-18T01:46:57.476Z,23.46
2018-03-18T01:49:26.532Z,23.46
2018-03-18T01:51:55.985Z,23.46
2018-03-18T01:54:25.096Z,23.45
2018-03-18T01:56:54.153Z,23.45
2018-03-18T01:59:23.250Z,23.43
2018-03-18T02:01:52.192Z,23.43
2018-03-18T02:04:21.262Z,23.43
2018-03-18T02:06:50.456Z,23.43
2018-03-18T02:09:19.513Z,23.44
2018-03-18T02:11:48.573Z,23.42
2018-03-18T02:14:17.908Z,23.42
2018-03-18T02:16:46.969Z,23.41
2018-03-18T02:19:16.027Z,23.41
2018-03-18T02:21:45.430Z,23.41
2018-03-18T02:24:14.490Z,23.40
2018-03-18T02:26:43.541Z,23.40
2018-03-18T02:29:12.622Z,23.40
2018-03-18T02:31:41.676Z,23.39
2018-03-18T02:34:10.730Z,23.38
2018-03-18T02:36:40.086Z,23.37
2018-03-18T02:39:09.143Z,23.38
2018-03-18T02:41:38.145Z,23.36
2018-03-18T02:44:07.605Z,23.36
2018-03-18T02:46:36.674Z,23.36
2018-03-18T02:49:05.609Z,23.36
2018-03-18T02:51:34.881Z,23.34
2018-03-18T02:54:03.943Z,23.35
2018-03-18T02:56:32.994Z,23.34
2018-03-18T02:59:02.375Z,23.33
2018-03-18T03:01:31.441Z,23.33
2018-03-18T03:04:00.501Z,23.35
2018-03-18T03:06:29.976Z,23.33
2018-03-18T03:08:59.039Z,23.32
2018-03-18T03:11:28.090Z,23.32
2018-03-18T03:13:57.471Z,23.33
2018-03-18T03:16:26.573Z,23.31
2018-03-18T03:18:55.634Z,23.31
2018-03-18T03:21:25.073Z,23.30
2018-03-18T03:23:54.125Z,23.30
2018-03-18T03:26:23.260Z,23.30
2018-03-18T03:28:52.850Z,23.30
2018-03-18T03:31:21.915Z,23.30
2018-03-18T03:33:50.977Z,23.31
2018-03-18T03:36:20.440Z,23.29
2018-03-18T03:38:49.503Z,23.28
2018-03-18T03:41:18.565Z,23.28
2018-03-18T03:43:47.929Z,23.28
2018-03-18T03:46:16.993Z,23.28
2018-03-18T03:48:46.051Z,23.28
2018-03-18T03:51:15.122Z,23.29
2018-03-18T03:53:44.173Z,23.29
2018-03-18T03:56:13.250Z,23.28
2018-03-18T03:58:42.621Z,23.29
2018-03-18T04:01:11.670Z,23.30
2018-03-18T04:03:40.730Z,23.28
2018-03-18T04:06:10.272Z,23.29
2018-03-18T04:08:39.514Z,23.27
2018-03-18T04:11:08.567Z,23.25
2018-03-18T04:13:37.633Z,23.25
2018-03-18T04:16:06.686Z,23.23
2018-03-18T04:18:35.746Z,23.23
2018-03-18T04:21:05.353Z,23.20
2018-03-18T04:23:34.225Z,23.21
2018-03-18T04:26:03.281Z,23.16
2018-03-18T04:28:32.662Z,23.15
2018-03-18T04:31:01.720Z,23.14
2018-03-18T04:33:30.771Z,23.14
2018-03-18T04:36:00.056Z,23.12
2018-03-18T04:38:29.114Z,23.11
2018-03-18T04:40:58.182Z,23.10
2018-03-18T04:43:27.274Z,23.09
2018-03-18T04:45:56.329Z,23.06
2018-03-18T04:48:25.382Z,23.06
2018-03-18T04:50:54.458Z,23.06
2018-03-18T04:53:23.287Z,23.05
2018-03-18T04:55:52.380Z,23.04
2018-03-18T04:58:21.924Z,23.02
2018-03-18T05:00:50.982Z,23.03
2018-03-18T05:03:20.041Z,23.02
2018-03-18T05:05:49.291Z,23.02
2018-03-18T05:08:18.354Z,23.00
2018-03-18T05:10:47.410Z,23.01
2018-03-18T05:13:16.790Z,23.00
2018-03-18T05:15:45.858Z,22.99
2018-03-18T05:18:15.183Z,22.97
2018-03-18T05:20:44.589Z,22.96
2018-03-18T05:23:13.669Z,22.97
2018-03-18T05:25:42.718Z,22.97
2018-03-18T05:28:12.181Z,22.95
2018-03-18T05:30:41.239Z,22.95
2018-03-18T05:33:10.121Z,22.93
2018-03-18T05:35:39.570Z,22.93
2018-03-18T05:38:08.437Z,22.91
2018-03-18T05:40:37.502Z,22.90
2018-03-18T05:43:06.603Z,22.90
2018-03-18T05:45:35.550Z,22.90
2018-03-18T05:48:04.601Z,22.90
2018-03-18T05:50:33.702Z,22.88
2018-03-18T05:53:02.758Z,22.88
2018-03-18T05:55:31.813Z,22.87
2018-03-18T05:58:00.885Z,22.88
2018-03-18T06:00:29.951Z,22.88
2018-03-18T06:02:59.005Z,22.87
2018-03-18T06:05:28.078Z,22.85
2018-03-18T06:07:57.021Z,22.86
2018-03-18T06:10:26.121Z,22.87
2018-03-18T06:12:55.513Z,22.86
2018-03-18T06:15:24.566Z,22.84
2018-03-18T06:17:53.501Z,22.83
2018-03-18T06:20:22.870Z,22.83
2018-03-18T06:22:51.921Z,22.83
2018-03-18T06:25:20.977Z,22.82
2018-03-18T06:27:50.574Z,22.83
2018-03-18T06:30:19.628Z,22.81
2018-03-18T06:32:48.697Z,22.82
2018-03-18T06:35:17.764Z,22.82
2018-03-18T06:37:46.830Z,22.81
2018-03-18T06:40:15.890Z,22.80
2018-03-18T06:42:45.343Z,22.81
2018-03-18T06:45:14.405Z,22.80
2018-03-18T06:47:43.485Z,22.80
2018-03-18T06:50:12.561Z,22.80
2018-03-18T06:52:41.625Z,22.83
2018-03-18T06:55:10.681Z,22.81
2018-03-18T06:57:39.757Z,22.81
2018-03-18T07:00:08.818Z,22.80
2018-03-18T07:02:37.869Z,22.79
2018-03-18T07:05:06.954Z,22.81
2018-03-18T07:07:36.009Z,22.79
2018-03-18T07:10:05.070Z,22.79
2018-03-18T07:12:34.478Z,22.80
2018-03-18T07:15:03.506Z,22.82
2018-03-18T07:17:32.570Z,22.80
2018-03-18T07:20:02.038Z,22.79
2018-03-18T07:22:31.277Z,22.79
2018-03-18T07:25:00.342Z,22.80
2018-03-18T07:27:29.415Z,22.79
2018-03-18T07:29:58.475Z,22.82
2018-03-18T07:32:27.535Z,22.80
2018-03-18T07:34:56.954Z,22.78
2018-03-18T07:37:26.022Z,22.79
2018-03-18T07:39:55.085Z,22.79
2018-03-18T07:42:24.156Z,22.77
2018-03-18T07:44:53.214Z,22.80
2018-03-18T07:47:22.273Z,22.80
2018-03-18T07:49:51.358Z,22.80
2018-03-18T07:52:20.418Z,22.78
2018-03-18T07:54:49.475Z,22.79
2018-03-18T07:57:18.569Z,22.78
2018-03-18T07:59:47.635Z,22.78
2018-03-18T08:02:16.697Z,22.77
2018-03-18T08:04:45.770Z,22.79
2018-03-18T08:07:14.822Z,22.79
2018-03-18T08:09:43.880Z,22.77
2018-03-18T08:12:13.282Z,22.78
2018-03-18T08:14:42.338Z,22.76
2018-03-18T08:17:11.281Z,22.77
2018-03-18T08:19:40.359Z,22.74
2018-03-18T08:22:09.418Z,22.75
2018-03-18T08:24:38.492Z,22.73
2018-03-18T08:27:07.663Z,22.73
2018-03-18T08:29:36.732Z,22.75
2018-03-18T08:32:05.789Z,22.72
2018-03-18T08:34:35.237Z,22.73
2018-03-18T08:37:04.309Z,22.73
2018-03-18T08:39:33.374Z,22.76
2018-03-18T08:42:03.449Z,22.76
2018-03-18T08:44:32.503Z,22.76
2018-03-18T08:47:01.560Z,22.78
2018-03-18T08:49:31.150Z,22.76
2018-03-18T08:52:00.203Z,22.73
2018-03-18T08:54:29.272Z,22.73
2018-03-18T08:56:58.743Z,22.77
2018-03-18T08:59:27.639Z,22.73
2018-03-18T09:01:56.685Z,22.74
2018-03-18T09:04:25.772Z,22.72
2018-03-18T09:06:54.839Z,22.75
2018-03-18T09:09:23.901Z,22.72
2018-03-18T09:11:53.098Z,22.73
2018-03-18T09:14:22.162Z,22.73
2018-03-18T09:16:51.223Z,22.74
2018-03-18T09:19:20.322Z,22.77
2018-03-18T09:21:49.377Z,22.75
2018-03-18T09:24:18.455Z,22.73
2018-03-18T09:26:47.525Z,22.72
2018-03-18T09:29:16.600Z,22.71
2018-03-18T09:31:45.657Z,22.72
2018-03-18T09:34:14.755Z,22.72
2018-03-18T09:36:43.813Z,22.72
2018-03-18T09:39:12.866Z,22.71
2018-03-18T09:41:41.952Z,22.75
2018-03-18T09:44:11.003Z,22.75
2018-03-18T09:46:40.058Z,22.74
2018-03-18T09:49:09.134Z,22.77
2018-03-18T09:51:38.191Z,22.77
2018-03-18T09:54:07.245Z,22.78
2018-03-18T09:56:36.726Z,22.77
2018-03-18T09:59:05.826Z,22.78
2018-03-18T10:01:34.881Z,22.78
2018-03-18T10:04:04.442Z,22.76
2018-03-18T10:06:33.498Z,22.77
2018-03-18T10:09:02.369Z,22.77
2018-03-18T10:11:31.453Z,22.78
2018-03-18T10:14:00.561Z,22.76
2018-03-18T10:16:29.798Z,22.78
2018-03-18T10:18:58.892Z,22.77
2018-03-18T10:21:27.955Z,22.77
2018-03-18T10:23:57.014Z,22.77
2018-03-18T10:26:26.470Z,22.78
2018-03-18T10:28:55.549Z,22.78
2018-03-18T10:31:24.468Z,22.77
2018-03-18T10:33:54.293Z,22.77
2018-03-18T10:36:23.356Z,22.79
2018-03-18T10:38:52.410Z,22.79
2018-03-18T10:41:21.485Z,22.79
2018-03-18T10:43:50.574Z,22.79
2018-03-18T10:46:19.470Z,22.79
2018-03-18T10:48:48.646Z,22.80
2018-03-18T10:51:17.694Z,22.82
2018-03-18T10:53:46.755Z,22.80
2018-03-18T10:56:15.762Z,22.78
2018-03-18T10:58:44.824Z,22.77
2018-03-18T11:01:19.450Z,22.78
2018-03-18T11:03:54.010Z,22.78
2018-03-18T11:06:23.093Z,22.76
2018-03-18T11:08:52.228Z,22.76
2018-03-18T11:11:21.430Z,22.77
2018-03-18T11:13:50.766Z,22.76
2018-03-18T11:16:19.867Z,22.76
2018-03-18T11:18:49.099Z,22.76
2018-03-18T11:21:18.182Z,22.75
2018-03-18T11:23:47.068Z,22.73
2018-03-18T11:26:16.341Z,22.76
2018-03-18T11:28:45.432Z,22.76
2018-03-18T11:31:14.527Z,22.77
2018-03-18T11:33:43.588Z,22.77
2018-03-18T11:36:12.677Z,22.77
2018-03-18T11:38:41.746Z,22.76
2018-03-18T11:41:10.833Z,22.78
2018-03-18T11:43:39.827Z,22.77
2018-03-18T11:46:08.881Z,22.78
2018-03-18T11:48:37.950Z,22.79
2018-03-18T11:51:07.027Z,22.80
2018-03-18T11:53:36.094Z,22.78
2018-03-18T11:56:05.175Z,22.81
2018-03-18T11:58:34.863Z,22.82
2018-03-18T12:01:03.979Z,22.83
2018-03-18T12:03:33.032Z,22.82
2018-03-18T12:06:02.118Z,22.81
2018-03-18T12:08:42.520Z,22.79
2018-03-18T12:11:11.604Z,22.80
2018-03-18T12:13:40.669Z,22.81
2018-03-18T12:16:09.739Z,22.80
2018-03-18T12:18:39.123Z,22.80
2018-03-18T12:21:08.200Z,22.82
2018-03-18T12:23:37.260Z,22.83
2018-03-18T12:26:06.382Z,22.86
2018-03-18T12:28:35.437Z,22.86
2018-03-18T12:31:04.510Z,22.85
2018-03-18T12:33:33.992Z,22.85
2018-03-18T12:36:03.050Z,22.86
2018-03-18T12:38:32.327Z,22.86
2018-03-18T12:41:02.398Z,22.89
2018-03-18T12:43:31.218Z,22.90
2018-03-18T12:46:00.289Z,22.87
2018-03-18T12:48:29.670Z,22.86
2018-03-18T12:50:58.726Z,22.89
2018-03-18T12:53:27.794Z,22.89
2018-03-18T12:55:57.157Z,22.88
2018-03-18T12:58:26.213Z,22.89
2018-03-18T13:00:55.336Z,22.89
2018-03-18T13:03:24.962Z,22.91
2018-03-18T13:05:54.044Z,22.91
2018-03-18T13:08:23.292Z,22.91
2018-03-18T13:10:52.959Z,22.89
2018-03-18T13:13:22.014Z,22.91
2018-03-18T13:15:51.077Z,22.90
2018-03-18T13:18:20.469Z,22.92
2018-03-18T13:20:49.530Z,22.93
2018-03-18T13:23:18.589Z,22.90
2018-03-18T13:25:47.680Z,22.94
2018-03-18T13:28:16.746Z,22.93
2018-03-18T13:30:45.816Z,22.96
2018-03-18T13:33:15.182Z,22.95
2018-03-18T13:35:44.241Z,22.96
2018-03-18T13:38:13.334Z,22.95
2018-03-18T13:40:42.410Z,22.95
2018-03-18T13:43:11.468Z,22.96
2018-03-18T13:45:40.540Z,22.98
2018-03-18T13:48:09.618Z,22.96
2018-03-18T13:50:38.671Z,22.94
2018-03-18T13:53:10.871Z,22.94
2018-03-18T13:55:40.353Z,22.93
2018-03-18T13:58:09.435Z,22.91
2018-03-18T14:00:38.496Z,22.94
2018-03-18T14:03:07.572Z,22.94
2018-03-18T14:05:36.700Z,22.92
2018-03-18T14:08:05.755Z,22.94
2018-03-18T14:10:34.847Z,22.92
2018-03-18T14:13:03.898Z,22.92
2018-03-18T14:15:32.962Z,22.92
2018-03-18T14:18:02.051Z,22.94
2018-03-18T14:20:31.120Z,22.96
2018-03-18T14:23:00.177Z,22.93
2018-03-18T14:25:29.262Z,22.93
2018-03-18T14:27:58.322Z,22.93
2018-03-18T14:30:27.373Z,22.93
2018-03-18T14:32:56.458Z,22.93
2018-03-18T14:35:25.518Z,22.94
2018-03-18T14:37:54.582Z,22.94
2018-03-18T14:40:23.658Z,22.94
2018-03-18T14:42:52.727Z,22.95
2018-03-18T14:45:21.794Z,22.96
2018-03-18T14:47:50.874Z,22.94
2018-03-18T14:50:19.930Z,22.92
2018-03-18T14:52:48.987Z,22.93
2018-03-18T14:55:18.073Z,22.95
2018-03-18T14:57:47.137Z,22.93
2018-03-18T15:00:16.206Z,22.95
2018-03-18T15:02:45.534Z,22.93
2018-03-18T15:05:14.614Z,22.93
2018-03-18T15:07:43.674Z,22.94
2018-03-18T15:10:12.771Z,22.93
2018-03-18T15:12:41.926Z,22.91
2018-03-18T15:15:10.988Z,22.92
2018-03-18T15:17:40.070Z,22.92
2018-03-18T15:20:09.137Z,22.95
2018-03-18T15:22:38.191Z,22.95
2018-03-18T15:25:07.306Z,22.97
2018-03-18T15:27:36.202Z,22.95
2018-03-18T15:30:06.026Z,22.95
2018-03-18T15:32:35.099Z,22.95
2018-03-18T15:35:03.857Z,22.96
2018-03-18T15:37:32.775Z,22.96
2018-03-18T15:40:01.884Z,22.95
2018-03-18T15:42:31.134Z,22.95
2018-03-18T15:45:00.194Z,22.96
2018-03-18T15:47:29.638Z,22.94
2018-03-18T15:49:58.705Z,22.93
2018-03-18T15:52:27.863Z,22.93
2018-03-18T15:54:57.064Z,22.92
2018-03-18T15:57:26.126Z,22.94
2018-03-18T15:59:55.186Z,22.93
2018-03-18T16:02:24.307Z,22.95
2018-03-18T16:04:53.550Z,22.95
2018-03-18T16:07:22.707Z,22.96
2018-03-18T16:09:51.920Z,22.95
2018-03-18T16:12:20.973Z,22.94
2018-03-18T16:14:50.029Z,22.93
2018-03-18T16:17:19.126Z,22.94
2018-03-18T16:19:48.198Z,22.93
2018-03-18T16:22:17.254Z,22.94
2018-03-18T16:24:46.332Z,22.91
2018-03-18T16:27:15.394Z,22.90
2018-03-18T16:29:55.774Z,22.91
2018-03-18T16:32:24.838Z,22.90
2018-03-18T16:34:53.904Z,22.91
2018-03-18T16:37:23.305Z,22.88
2018-03-18T16:39:52.178Z,22.88
2018-03-18T16:42:21.242Z,22.90
2018-03-18T16:44:50.326Z,22.89
2018-03-18T16:47:19.406Z,22.87
2018-03-18T16:49:48.462Z,22.89
2018-03-18T16:52:17.559Z,22.86
2018-03-18T16:54:46.610Z,22.85
2018-03-18T16:57:15.713Z,22.86
2018-03-18T16:59:44.789Z,22.86
2018-03-18T17:02:13.850Z,22.84
2018-03-18T17:04:42.786Z,22.86
2018-03-18T17:07:11.870Z,22.84
2018-03-18T17:09:40.917Z,22.85
2018-03-18T17:12:09.979Z,22.83
2018-03-18T17:14:39.061Z,22.84
2018-03-18T17:17:08.125Z,22.84
2018-03-18T17:19:37.186Z,22.85
2018-03-18T17:22:06.265Z,22.82
2018-03-18T17:24:36.690Z,22.80
2018-03-18T17:27:05.980Z,22.81
2018-03-18T17:29:35.059Z,22.82
2018-03-18T17:32:04.127Z,22.84
2018-03-18T17:34:33.186Z,22.82
2018-03-18T17:37:02.342Z,22.83
2018-03-18T17:39:31.566Z,22.79
2018-03-18T17:42:00.626Z,22.77
2018-03-18T17:44:40.917Z,22.79
2018-03-18T17:47:21.361Z,22.79
2018-03-18T17:50:01.404Z,22.78
2018-03-18T17:52:41.762Z,22.78
2018-03-18T18:08:39.358Z,22.79
2018-03-18T18:11:08.417Z,22.78
2018-03-18T18:13:37.482Z,22.79
2018-03-18T18:16:06.554Z,22.79
2018-03-18T18:18:35.601Z,22.81
2018-03-18T18:21:04.662Z,22.80
2018-03-18T18:23:33.738Z,22.79
2018-03-18T18:26:02.799Z,22.78
2018-03-18T18:28:31.896Z,22.79
2018-03-18T18:31:01.166Z,22.78
2018-03-18T18:33:30.221Z,22.78
2018-03-18T18:35:59.276Z,22.78
2018-03-18T18:38:28.373Z,22.77
2018-03-18T18:40:57.346Z,22.78
2018-03-18T18:43:26.449Z,22.77
2018-03-18T18:45:55.694Z,22.76
2018-03-18T18:48:24.758Z,22.78
2018-03-18T18:50:53.621Z,22.78
2018-03-18T18:53:23.029Z,22.78
2018-03-18T18:55:52.030Z,22.78
2018-03-18T18:58:21.090Z,22.77
2018-03-18T19:00:50.304Z,22.78
2018-03-18T19:03:19.124Z,22.78
2018-03-18T19:05:48.181Z,22.77
2018-03-18T19:08:18.182Z,22.76
2018-03-18T19:10:47.744Z,22.75
2018-03-18T19:13:16.802Z,22.76
2018-03-18T19:15:46.203Z,22.73
2018-03-18T19:18:15.298Z,22.73
2018-03-18T19:20:44.375Z,22.72
2018-03-18T19:23:13.785Z,22.71
2018-03-18T19:25:42.838Z,22.72
2018-03-18T19:28:11.994Z,22.74
2018-03-18T19:30:41.277Z,22.76
2018-03-18T19:33:10.338Z,22.73
2018-03-18T19:35:39.293Z,22.72
2018-03-18T19:38:08.402Z,22.71
2018-03-18T19:40:37.462Z,22.71
2018-03-18T19:43:06.516Z,22.69
2018-03-18T19:45:35.593Z,22.70
2018-03-18T19:48:04.656Z,22.72
2018-03-18T19:50:33.714Z,22.70
2018-03-18T19:53:03.247Z,22.71
2018-03-18T19:55:32.259Z,22.71
2018-03-18T19:58:01.323Z,22.69
2018-03-18T20:00:30.403Z,22.68
2018-03-18T20:02:59.463Z,22.69
2018-03-18T20:05:28.525Z,22.71
2018-03-18T20:07:57.908Z,22.68
2018-03-18T20:10:26.967Z,22.68
2018-03-18T20:12:56.027Z,22.69
2018-03-18T20:15:25.103Z,22.68
2018-03-18T20:17:54.160Z,22.68
2018-03-18T20:20:23.284Z,22.67
2018-03-18T20:22:52.382Z,22.65
2018-03-18T20:25:21.450Z,22.65
2018-03-18T20:27:50.499Z,22.65
2018-03-18T20:30:19.465Z,22.66
2018-03-18T20:32:48.385Z,22.65
2018-03-18T20:35:17.458Z,22.65
2018-03-18T20:37:46.548Z,22.67
2018-03-18T20:40:15.601Z,22.65
2018-03-18T20:42:44.661Z,22.66
2018-03-18T20:45:13.745Z,22.66
2018-03-18T20:47:42.810Z,22.68
2018-03-18T20:50:11.870Z,22.67
2018-03-18T20:52:41.237Z,22.65
2018-03-18T20:55:10.302Z,22.66
2018-03-18T20:57:39.372Z,22.67
2018-03-18T21:00:08.478Z,22.66
2018-03-18T21:02:37.533Z,22.68
2018-03-18T21:05:06.590Z,22.65
2018-03-18T21:07:35.977Z,22.66
2018-03-18T21:10:05.122Z,22.69
2018-03-18T21:12:34.178Z,22.71
2018-03-18T21:15:03.266Z,22.72
2018-03-18T21:17:32.326Z,22.72
2018-03-18T21:20:01.427Z,22.75
2018-03-18T21:22:31.054Z,22.73
2018-03-18T21:25:00.114Z,22.72
2018-03-18T21:27:29.174Z,22.77
2018-03-18T21:29:58.064Z,22.78
2018-03-18T21:32:26.938Z,22.77
2018-03-18T21:34:55.992Z,22.76
2018-03-18T21:37:25.222Z,22.77
2018-03-18T21:39:54.275Z,22.77
2018-03-18T21:42:23.340Z,22.79
2018-03-18T21:44:52.450Z,22.79
2018-03-18T21:47:21.506Z,22.81
2018-03-18T21:49:50.377Z,22.81
2018-03-18T21:52:19.790Z,22.80
2018-03-18T21:54:48.856Z,22.83
2018-03-18T21:57:17.917Z,22.86
2018-03-18T21:59:47.259Z,22.87
2018-03-18T22:02:16.314Z,22.88
2018-03-18T22:04:45.373Z,22.87
2018-03-18T22:07:14.453Z,22.87
2018-03-18T22:09:43.530Z,22.87
2018-03-18T22:12:12.593Z,22.86
2018-03-18T22:14:41.669Z,22.87
2018-03-18T22:17:10.721Z,22.87
2018-03-18T22:19:39.786Z,22.85
2018-03-18T22:22:08.862Z,22.86
2018-03-18T22:24:37.914Z,22.85
2018-03-18T22:27:06.973Z,22.86
2018-03-18T22:29:36.114Z,22.87
2018-03-18T22:32:05.166Z,22.86
2018-03-18T22:34:34.226Z,22.85
2018-03-18T22:37:03.118Z,22.85
2018-03-18T22:39:32.173Z,22.86
2018-03-18T22:42:01.235Z,22.85
2018-03-18T22:44:30.310Z,22.86
2018-03-18T22:46:59.382Z,22.86
2018-03-18T22:49:28.462Z,22.86
2018-03-18T22:51:57.814Z,22.86
2018-03-18T22:54:26.874Z,22.86
2018-03-18T22:56:57.412Z,22.87
2018-03-18T22:59:26.462Z,22.86
2018-03-18T23:01:55.521Z,22.85
2018-03-18T23:04:24.595Z,22.85
2018-03-18T23:06:53.649Z,22.86
2018-03-18T23:09:22.711Z,22.87
2018-03-18T23:11:52.073Z,22.86
2018-03-18T23:14:21.174Z,22.86
2018-03-18T23:16:50.283Z,22.88
2018-03-18T23:19:19.354Z,22.89
2018-03-18T23:21:48.424Z,22.90
2018-03-18T23:24:17.481Z,22.90
2018-03-18T23:26:46.861Z,22.89
2018-03-18T23:29:15.919Z,22.91
2018-03-18T23:31:44.975Z,22.90
2018-03-18T23:34:14.529Z,22.90
2018-03-18T23:36:44.369Z,22.91
2018-03-18T23:39:13.459Z,22.92
2018-03-18T23:41:42.957Z,22.92
2018-03-18T23:44:12.017Z,22.91
2018-03-18T23:46:41.072Z,22.91
2018-03-18T23:49:10.449Z,22.92
2018-03-18T23:51:39.514Z,22.91
2018-03-18T23:54:08.578Z,22.93
2018-03-18T23:56:37.870Z,22.94
2018-03-18T23:59:06.922Z,22.93
